Time,TemperatureF,DewpointF,PressureIn,WindDirection,WindDirectionDegrees,WindSpeedMPH,WindSpeedGustMPH,Humidity,HourlyPrecipIn,Conditions,Clouds,dailyrainin,SolarRadiationWatts/m^2,SoftwareType,DateUTC
2013-08-08 00:01:00,72.3,71.8,29.94,South,170,1.0,4.0,98,0.01,,,1.45,0.0,meteohub,2013-08-08 04:01:00,
2013-08-08 00:02:00,72.1,71.6,29.94,SSE,156,3.0,4.0,98,0.01,,,1.45,0.0,meteohub,2013-08-08 04:02:00,
2013-08-08 00:04:00,72.3,71.8,29.94,SE,144,2.0,4.0,98,0.01,,,1.45,0.0,meteohub,2013-08-08 04:04:00,
2013-08-08 00:05:00,72.3,71.8,29.94,SSW,200,0.0,5.0,98,0.01,,,1.45,0.0,meteohub,2013-08-08 04:05:00,
2013-08-08 00:10:00,72.3,71.8,29.94,SSE,164,1.0,5.0,98,0.01,,,1.45,0.0,meteohub,2013-08-08 04:10:00,
2013-08-08 00:16:00,72.3,71.8,29.94,South,174,2.0,5.0,98,0.00,,,1.45,0.0,meteohub,2013-08-08 04:16:00,
2013-08-08 00:21:00,72.3,71.8,29.94,South,181,1.0,5.0,98,0.00,,,1.45,0.0,meteohub,2013-08-08 04:21:00,
2013-08-08 00:26:00,72.3,71.8,29.94,SSE,161,3.0,6.0,98,0.00,,,1.45,0.0,meteohub,2013-08-08 04:26:00,
2013-08-08 00:31:00,72.3,71.8,29.94,South,185,5.0,6.0,98,0.00,,,1.45,0.0,meteohub,2013-08-08 04:31:00,
2013-08-08 00:36:00,72.3,71.8,29.94,South,177,2.0,5.0,98,0.00,,,1.45,0.0,meteohub,2013-08-08 04:36:00,
2013-08-08 00:41:00,72.3,71.8,29.94,SSE,165,2.0,5.0,98,0.00,,,1.45,0.0,meteohub,2013-08-08 04:41:00,
2013-08-08 00:46:00,72.3,71.8,29.94,SW,225,3.0,6.0,98,0.00,,,1.45,0.0,meteohub,2013-08-08 04:46:00,
2013-08-08 00:52:00,72.3,71.8,29.94,SSW,198,1.0,6.0,98,0.00,,,1.45,0.0,meteohub,2013-08-08 04:52:00,
2013-08-08 00:57:00,72.1,71.2,29.94,South,187,1.0,6.0,97,0.00,,,1.45,0.0,meteohub,2013-08-08 04:57:00,
2013-08-08 01:02:00,72.1,71.2,29.95,South,175,1.0,7.0,97,0.00,,,1.45,0.0,meteohub,2013-08-08 05:02:00,
2013-08-08 01:07:00,72.0,71.4,29.95,South,187,1.0,7.0,98,0.00,,,1.45,0.0,meteohub,2013-08-08 05:07:00,
2013-08-08 01:12:00,72.0,71.4,29.95,South,176,3.0,7.0,98,0.00,,,1.45,0.0,meteohub,2013-08-08 05:12:00,
2013-08-08 01:17:00,71.8,70.9,29.95,SSE,156,3.0,7.0,97,0.00,,,1.45,0.0,meteohub,2013-08-08 05:17:00,
2013-08-08 01:22:00,71.8,70.9,29.95,South,180,4.0,9.0,97,0.00,,,1.45,0.0,meteohub,2013-08-08 05:22:00,
2013-08-08 01:27:00,71.8,71.2,29.95,South,191,10.0,10.0,98,0.00,,,1.45,0.0,meteohub,2013-08-08 05:27:00,
2013-08-08 01:32:00,71.8,71.2,29.95,WSW,248,4.0,14.0,98,0.00,,,1.45,0.0,meteohub,2013-08-08 05:32:00,
2013-08-08 01:37:00,71.8,71.2,29.94,West,272,2.0,15.0,98,0.03,,,1.48,0.0,meteohub,2013-08-08 05:37:00,
2013-08-08 01:43:00,71.8,71.2,29.94,SW,229,5.0,15.0,98,0.08,,,1.53,0.0,meteohub,2013-08-08 05:43:00,
2013-08-08 01:48:00,71.8,71.2,29.94,SSE,162,5.0,11.0,98,0.14,,,1.59,0.0,meteohub,2013-08-08 05:48:00,
2013-08-08 01:53:00,71.8,71.2,29.94,SSW,210,4.0,13.0,98,0.22,,,1.67,0.0,meteohub,2013-08-08 05:53:00,
2013-08-08 01:58:00,71.6,71.1,29.94,SSW,205,1.0,13.0,98,0.27,,,1.72,0.0,meteohub,2013-08-08 05:58:00,
2013-08-08 02:03:00,71.6,71.1,29.94,SW,222,2.0,10.0,98,0.34,,,1.79,0.0,meteohub,2013-08-08 06:03:00,
2013-08-08 02:08:00,71.6,71.1,29.94,SSE,152,2.0,12.0,98,0.38,,,1.83,0.0,meteohub,2013-08-08 06:08:00,
2013-08-08 02:13:00,71.8,71.2,29.94,SW,230,2.0,12.0,98,0.38,,,1.83,0.0,meteohub,2013-08-08 06:13:00,
2013-08-08 02:18:00,71.6,71.1,29.94,SW,229,2.0,12.0,98,0.40,,,1.85,0.0,meteohub,2013-08-08 06:18:00,
2013-08-08 02:23:00,71.8,71.2,29.93,SW,232,6.0,7.0,98,0.40,,,1.85,0.0,meteohub,2013-08-08 06:23:00,
2013-08-08 02:28:00,71.8,71.2,29.93,SW,227,2.0,7.0,98,0.40,,,1.85,0.0,meteohub,2013-08-08 06:28:00,
2013-08-08 02:34:00,71.8,71.2,29.93,WSW,242,1.0,6.0,98,0.40,,,1.85,0.0,meteohub,2013-08-08 06:34:00,
2013-08-08 02:39:00,71.8,71.2,29.93,WSW,254,1.0,6.0,98,0.37,,,1.86,0.0,meteohub,2013-08-08 06:39:00,
2013-08-08 02:44:00,71.6,71.1,29.93,SW,227,1.0,5.0,98,0.28,,,1.86,0.0,meteohub,2013-08-08 06:44:00,
2013-08-08 02:49:00,71.6,71.1,29.93,SW,227,0.0,3.0,98,0.25,,,1.86,0.0,meteohub,2013-08-08 06:49:00,
2013-08-08 02:54:00,71.8,71.2,29.93,SSW,210,1.0,3.0,98,0.18,,,1.86,0.0,meteohub,2013-08-08 06:54:00,
2013-08-08 02:59:00,71.8,71.2,29.93,SW,222,2.0,4.0,98,0.10,,,1.87,0.0,meteohub,2013-08-08 06:59:00,
2013-08-08 03:04:00,71.8,71.2,29.93,SSW,210,2.0,4.0,98,0.06,,,1.87,0.0,meteohub,2013-08-08 07:04:00,
2013-08-08 03:10:00,71.8,71.2,29.93,SSW,210,0.0,4.0,98,0.04,,,1.87,0.0,meteohub,2013-08-08 07:10:00,
2013-08-08 03:15:00,72.0,71.6,29.93,SW,219,0.0,4.0,99,0.03,,,1.87,0.0,meteohub,2013-08-08 07:15:00,
2013-08-08 03:20:00,72.0,71.6,29.93,SSW,210,1.0,3.0,99,0.02,,,1.87,0.0,meteohub,2013-08-08 07:20:00,
2013-08-08 03:25:00,72.0,71.6,29.92,SSW,210,1.0,3.0,99,0.03,,,1.88,0.0,meteohub,2013-08-08 07:25:00,
2013-08-08 03:30:00,72.1,71.8,29.92,SW,215,1.0,3.0,99,0.03,,,1.88,0.0,meteohub,2013-08-08 07:30:00,
2013-08-08 03:35:00,72.1,71.8,29.92,SW,215,0.0,3.0,99,0.02,,,1.88,0.0,meteohub,2013-08-08 07:35:00,
2013-08-08 03:40:00,72.1,71.8,29.92,SSW,194,0.0,3.0,99,0.02,,,1.88,0.0,meteohub,2013-08-08 07:40:00,
2013-08-08 03:45:00,72.1,71.8,29.92,SW,215,1.0,3.0,99,0.02,,,1.88,0.0,meteohub,2013-08-08 07:45:00,
2013-08-08 03:50:00,72.1,71.8,29.92,SW,215,0.0,3.0,99,0.02,,,1.88,0.0,meteohub,2013-08-08 07:50:00,
2013-08-08 03:55:00,72.1,71.8,29.92,SW,215,0.0,2.0,99,0.01,,,1.88,0.0,meteohub,2013-08-08 07:55:00,
2013-08-08 04:00:00,72.1,71.8,29.92,SW,215,0.0,2.0,99,0.01,,,1.88,0.0,meteohub,2013-08-08 08:00:00,
2013-08-08 04:05:00,72.1,71.8,29.92,SW,215,0.0,1.0,99,0.01,,,1.88,0.0,meteohub,2013-08-08 08:05:00,
2013-08-08 04:10:00,72.1,71.8,29.92,SW,215,0.0,1.0,99,0.01,,,1.88,0.0,meteohub,2013-08-08 08:10:00,
2013-08-08 04:16:00,72.1,71.8,29.92,SW,215,0.0,1.0,99,0.01,,,1.88,0.0,meteohub,2013-08-08 08:16:00,
2013-08-08 04:21:00,72.1,71.8,29.92,SW,219,1.0,1.0,99,0.01,,,1.88,0.0,meteohub,2013-08-08 08:21:00,
2013-08-08 04:26:00,72.1,71.8,29.92,SW,215,0.0,1.0,99,0.00,,,1.88,0.0,meteohub,2013-08-08 08:26:00,
2013-08-08 04:27:00,72.1,71.8,29.92,SW,219,0.0,1.0,99,0.00,,,1.88,0.0,meteohub,2013-08-08 08:27:00,
2013-08-08 04:32:00,72.1,71.8,29.92,SW,215,0.0,1.0,99,0.00,,,1.88,0.0,meteohub,2013-08-08 08:32:00,
2013-08-08 04:37:00,72.1,71.8,29.92,SW,215,0.0,1.0,99,0.00,,,1.88,0.0,meteohub,2013-08-08 08:37:00,
2013-08-08 04:42:00,72.1,71.8,29.92,SW,215,0.0,0.0,99,0.00,,,1.88,0.0,meteohub,2013-08-08 08:42:00,
2013-08-08 04:47:00,72.1,71.8,29.92,SW,215,0.0,1.0,99,0.00,,,1.88,0.0,meteohub,2013-08-08 08:47:00,
2013-08-08 04:52:00,72.1,71.8,29.92,SW,215,0.0,1.0,99,0.00,,,1.88,0.0,meteohub,2013-08-08 08:52:00,
2013-08-08 04:57:00,72.3,72.0,29.92,SW,215,0.0,2.0,99,0.00,,,1.88,0.0,meteohub,2013-08-08 08:57:00,
2013-08-08 05:02:00,72.3,72.0,29.92,SW,215,0.0,2.0,99,0.00,,,1.88,0.0,meteohub,2013-08-08 09:02:00,
2013-08-08 05:07:00,72.3,72.0,29.92,SW,215,0.0,2.0,99,0.00,,,1.88,0.0,meteohub,2013-08-08 09:07:00,
2013-08-08 05:12:00,72.5,72.1,29.92,SW,215,1.0,1.0,99,0.00,,,1.88,0.0,meteohub,2013-08-08 09:12:00,
2013-08-08 05:17:00,72.5,72.1,29.92,SW,215,0.0,2.0,99,0.00,,,1.88,0.0,meteohub,2013-08-08 09:17:00,
2013-08-08 05:22:00,72.7,72.3,29.92,SW,215,0.0,2.0,99,0.00,,,1.88,0.0,meteohub,2013-08-08 09:22:00,
2013-08-08 05:27:00,72.7,72.3,29.92,SW,215,0.0,2.0,99,0.00,,,1.88,0.0,meteohub,2013-08-08 09:27:00,
2013-08-08 05:32:00,72.7,72.3,29.92,SW,215,0.0,1.0,99,0.00,,,1.88,0.0,meteohub,2013-08-08 09:32:00,
2013-08-08 05:37:00,72.7,72.3,29.92,SW,215,0.0,1.0,99,0.00,,,1.88,0.0,meteohub,2013-08-08 09:37:00,
2013-08-08 05:42:00,72.7,72.3,29.92,SW,215,0.0,1.0,99,0.00,,,1.88,0.0,meteohub,2013-08-08 09:42:00,
2013-08-08 05:48:00,72.7,72.3,29.92,SW,215,0.0,1.0,99,0.01,,,1.89,0.0,meteohub,2013-08-08 09:48:00,
2013-08-08 05:53:00,72.7,72.3,29.92,SW,215,0.0,1.0,99,0.01,,,1.89,0.0,meteohub,2013-08-08 09:53:00,
2013-08-08 05:58:00,72.7,72.3,29.92,South,174,1.0,2.0,99,0.01,,,1.89,0.0,meteohub,2013-08-08 09:58:00,
2013-08-08 06:03:00,72.7,72.3,29.92,South,181,2.0,3.0,99,0.01,,,1.89,0.0,meteohub,2013-08-08 10:03:00,
2013-08-08 06:08:00,72.7,72.3,29.92,South,181,1.0,3.0,99,0.01,,,1.89,0.0,meteohub,2013-08-08 10:08:00,
2013-08-08 06:13:00,72.7,72.3,29.92,South,181,0.0,3.0,99,0.01,,,1.89,0.0,meteohub,2013-08-08 10:13:00,
2013-08-08 06:18:00,72.7,72.3,29.92,ESE,117,2.0,3.0,99,0.03,,,1.91,0.0,meteohub,2013-08-08 10:18:00,
2013-08-08 06:23:00,72.7,72.3,29.92,ESE,111,0.0,3.0,99,0.05,,,1.93,0.0,meteohub,2013-08-08 10:23:00,
2013-08-08 06:28:00,72.7,72.3,29.93,SW,234,1.0,3.0,99,0.06,,,1.94,0.0,meteohub,2013-08-08 10:28:00,
2013-08-08 06:33:00,72.5,72.1,29.93,SSE,166,0.0,3.0,99,0.11,,,1.99,0.0,meteohub,2013-08-08 10:33:00,
2013-08-08 06:38:00,72.5,72.1,29.92,SSE,166,2.0,4.0,99,0.13,,,2.00,0.0,meteohub,2013-08-08 10:38:00,
2013-08-08 06:44:00,72.5,72.1,29.93,SSW,200,0.0,4.0,99,0.15,,,2.03,0.0,meteohub,2013-08-08 10:44:00,
2013-08-08 06:49:00,72.5,72.1,29.93,SSW,200,0.0,4.0,99,0.17,,,2.06,0.0,meteohub,2013-08-08 10:49:00,
2013-08-08 06:54:00,72.5,72.1,29.93,SSW,200,0.0,2.0,99,0.18,,,2.07,0.0,meteohub,2013-08-08 10:54:00,
2013-08-08 06:59:00,72.5,72.1,29.93,SSW,200,1.0,2.0,99,0.20,,,2.09,5.0,meteohub,2013-08-08 10:59:00,
2013-08-08 07:04:00,72.5,72.1,29.93,South,180,1.0,2.0,99,0.20,,,2.09,9.0,meteohub,2013-08-08 11:04:00,
2013-08-08 07:09:00,72.5,72.1,29.93,South,180,1.0,3.0,99,0.21,,,2.10,11.0,meteohub,2013-08-08 11:09:00,
2013-08-08 07:14:00,72.5,72.1,29.93,South,180,0.0,3.0,99,0.21,,,2.10,11.0,meteohub,2013-08-08 11:14:00,
2013-08-08 07:20:00,72.5,72.1,29.93,South,180,0.0,3.0,99,0.18,,,2.10,11.0,meteohub,2013-08-08 11:20:00,
2013-08-08 07:25:00,72.7,72.3,29.93,South,180,0.0,2.0,99,0.14,,,2.10,11.0,meteohub,2013-08-08 11:25:00,
2013-08-08 07:30:00,72.7,72.3,29.94,South,190,1.0,4.0,99,0.11,,,2.10,16.0,meteohub,2013-08-08 11:30:00,
2013-08-08 07:35:00,72.7,72.3,29.94,South,180,0.0,4.0,99,0.09,,,2.10,19.0,meteohub,2013-08-08 11:35:00,
2013-08-08 07:40:00,72.7,72.3,29.94,South,170,2.0,5.0,99,0.06,,,2.10,28.0,meteohub,2013-08-08 11:40:00,
2013-08-08 07:45:00,72.7,72.3,29.94,SSE,165,2.0,5.0,99,0.04,,,2.10,42.0,meteohub,2013-08-08 11:45:00,
2013-08-08 07:50:00,72.7,72.3,29.94,South,187,3.0,7.0,99,0.02,,,2.10,33.0,meteohub,2013-08-08 11:50:00,
2013-08-08 07:56:00,72.5,72.1,29.94,SSW,205,2.0,7.0,99,0.01,,,2.10,19.0,meteohub,2013-08-08 11:56:00,
2013-08-08 08:01:00,72.5,72.1,29.94,SSW,199,2.0,7.0,99,0.00,,,2.10,18.0,meteohub,2013-08-08 12:01:00,
2013-08-08 08:06:00,72.5,72.1,29.94,SSW,205,0.0,5.0,99,0.00,,,2.10,25.0,meteohub,2013-08-08 12:06:00,
2013-08-08 08:11:00,72.5,72.1,29.94,SW,215,2.0,5.0,99,0.00,,,2.10,39.0,meteohub,2013-08-08 12:11:00,
2013-08-08 08:16:00,72.5,72.1,29.94,South,185,2.0,6.0,99,0.00,,,2.10,37.0,meteohub,2013-08-08 12:16:00,
2013-08-08 08:21:00,72.5,72.1,29.94,South,175,4.0,6.0,99,0.00,,,2.10,30.0,meteohub,2013-08-08 12:21:00,
2013-08-08 08:26:00,72.3,72.0,29.94,South,169,0.0,6.0,99,0.00,,,2.10,35.0,meteohub,2013-08-08 12:26:00,
2013-08-08 08:31:00,72.3,72.0,29.94,SW,215,0.0,4.0,99,0.00,,,2.10,16.0,meteohub,2013-08-08 12:31:00,
2013-08-08 08:36:00,72.3,72.0,29.94,South,179,2.0,5.0,99,0.00,,,2.10,18.0,meteohub,2013-08-08 12:36:00,
2013-08-08 08:41:00,72.3,72.0,29.94,SSE,167,3.0,5.0,99,0.00,,,2.10,25.0,meteohub,2013-08-08 12:41:00,
2013-08-08 08:47:00,72.3,72.0,29.94,SSE,167,3.0,5.0,99,0.00,,,2.10,32.0,meteohub,2013-08-08 12:47:00,
2013-08-08 08:52:00,72.3,72.0,29.94,South,188,3.0,4.0,99,0.00,,,2.10,74.0,meteohub,2013-08-08 12:52:00,
2013-08-08 08:57:00,72.3,72.0,29.94,SSW,196,2.0,6.0,99,0.00,,,2.10,104.0,meteohub,2013-08-08 12:57:00,
2013-08-08 09:02:00,72.7,72.3,29.94,SSW,194,0.0,6.0,99,0.00,,,2.10,127.0,meteohub,2013-08-08 13:02:00,
2013-08-08 09:07:00,72.7,72.3,29.95,SSW,205,4.0,5.0,99,0.00,,,2.10,174.0,meteohub,2013-08-08 13:07:00,
2013-08-08 09:12:00,72.9,72.5,29.94,South,182,1.0,7.0,99,0.00,,,2.10,229.0,meteohub,2013-08-08 13:12:00,
2013-08-08 09:17:00,73.0,72.7,29.95,SSW,205,0.0,7.0,99,0.00,,,2.10,130.0,meteohub,2013-08-08 13:17:00,
2013-08-08 09:22:00,73.2,72.9,29.94,SSE,160,3.0,7.0,99,0.00,,,2.10,114.0,meteohub,2013-08-08 13:22:00,
2013-08-08 09:27:00,73.2,72.7,29.94,SSW,200,1.0,6.0,98,0.00,,,2.10,135.0,meteohub,2013-08-08 13:27:00,
2013-08-08 09:32:00,73.2,72.7,29.94,SSW,192,2.0,6.0,98,0.00,,,2.10,137.0,meteohub,2013-08-08 13:32:00,
2013-08-08 09:37:00,73.2,72.7,29.95,SW,236,2.0,6.0,98,0.00,,,2.10,171.0,meteohub,2013-08-08 13:37:00,
2013-08-08 09:42:00,73.6,73.0,29.95,SW,223,3.0,4.0,98,0.00,,,2.10,97.0,meteohub,2013-08-08 13:42:00,
2013-08-08 09:47:00,73.6,73.0,29.95,SSW,201,2.0,4.0,98,0.00,,,2.10,67.0,meteohub,2013-08-08 13:47:00,
2013-08-08 09:52:00,73.4,72.9,29.95,SSW,193,1.0,4.0,98,0.00,,,2.10,74.0,meteohub,2013-08-08 13:52:00,
2013-08-08 09:57:00,73.2,72.3,29.96,South,190,0.0,4.0,97,0.00,,,2.10,65.0,meteohub,2013-08-08 13:57:00,
2013-08-08 10:02:00,73.2,72.3,29.96,South,187,3.0,4.0,97,0.00,,,2.10,74.0,meteohub,2013-08-08 14:02:00,
2013-08-08 10:07:00,73.2,72.3,29.96,South,184,2.0,6.0,97,0.00,,,2.10,149.0,meteohub,2013-08-08 14:07:00,
2013-08-08 10:12:00,73.4,72.9,29.96,South,169,1.0,6.0,98,0.00,,,2.10,216.0,meteohub,2013-08-08 14:12:00,
2013-08-08 10:17:00,73.6,72.7,29.96,South,183,1.0,6.0,97,0.00,,,2.10,160.0,meteohub,2013-08-08 14:17:00,
2013-08-08 10:22:00,73.6,72.7,29.96,SW,215,3.0,6.0,97,0.00,,,2.10,211.0,meteohub,2013-08-08 14:22:00,
2013-08-08 10:27:00,73.8,72.9,29.96,SSW,205,0.0,6.0,97,0.00,,,2.10,267.0,meteohub,2013-08-08 14:27:00,
2013-08-08 10:32:00,74.1,73.6,29.96,SE,136,1.0,6.0,98,0.00,,,2.10,315.0,meteohub,2013-08-08 14:32:00,
2013-08-08 10:37:00,74.5,73.9,29.96,WSW,254,2.0,5.0,98,0.00,,,2.10,318.0,meteohub,2013-08-08 14:37:00,
2013-08-08 10:42:00,74.8,73.6,29.96,WSW,248,2.0,4.0,96,0.00,,,2.10,318.0,meteohub,2013-08-08 14:42:00,
2013-08-08 10:47:00,75.0,74.1,29.96,SW,229,2.0,5.0,97,0.00,,,2.10,320.0,meteohub,2013-08-08 14:47:00,
2013-08-08 10:52:00,75.6,74.7,29.96,WSW,253,0.0,5.0,97,0.00,,,2.10,251.0,meteohub,2013-08-08 14:52:00,
2013-08-08 10:57:00,75.6,73.9,29.96,South,189,1.0,5.0,95,0.00,,,2.10,278.0,meteohub,2013-08-08 14:57:00,
2013-08-08 11:02:00,75.7,73.9,29.96,South,179,4.0,6.0,94,0.00,,,2.10,294.0,meteohub,2013-08-08 15:02:00,
2013-08-08 11:07:00,75.7,74.1,29.96,WSW,243,3.0,10.0,95,0.00,,,2.10,295.0,meteohub,2013-08-08 15:07:00,
2013-08-08 11:12:00,75.7,73.9,29.96,West,273,3.0,10.0,94,0.00,,,2.10,290.0,meteohub,2013-08-08 15:12:00,
2013-08-08 11:17:00,76.3,74.7,29.96,SSW,196,2.0,10.0,95,0.00,,,2.10,380.0,meteohub,2013-08-08 15:17:00,
2013-08-08 11:22:00,76.8,74.3,29.96,WSW,246,5.0,9.0,92,0.00,,,2.10,520.0,meteohub,2013-08-08 15:22:00,
2013-08-08 11:28:00,77.5,75.0,29.96,SSE,159,6.0,9.0,92,0.00,,,2.10,519.0,meteohub,2013-08-08 15:28:00,
2013-08-08 11:33:00,78.3,75.4,29.96,SW,232,2.0,9.0,91,0.00,,,2.10,578.0,meteohub,2013-08-08 15:33:00,
2013-08-08 11:38:00,78.4,75.6,29.96,SSE,158,0.0,8.0,91,0.00,,,2.10,406.0,meteohub,2013-08-08 15:38:00,
2013-08-08 11:43:00,78.4,74.8,29.96,South,175,2.0,8.0,89,0.00,,,2.10,299.0,meteohub,2013-08-08 15:43:00,
2013-08-08 11:48:00,78.1,74.5,29.96,SSW,205,2.0,10.0,89,0.00,,,2.10,241.0,meteohub,2013-08-08 15:48:00,
2013-08-08 11:53:00,77.7,74.5,29.96,SE,136,1.0,10.0,90,0.00,,,2.10,227.0,meteohub,2013-08-08 15:53:00,
2013-08-08 11:58:00,77.7,74.5,29.96,WNW,285,7.0,10.0,90,0.00,,,2.10,220.0,meteohub,2013-08-08 15:58:00,
2013-08-08 12:03:00,77.4,73.9,29.96,WNW,298,3.0,7.0,89,0.00,,,2.10,237.0,meteohub,2013-08-08 16:03:00,
2013-08-08 12:08:00,77.2,73.8,29.96,WSW,238,7.0,12.0,89,0.00,,,2.10,209.0,meteohub,2013-08-08 16:08:00,
2013-08-08 12:13:00,76.8,73.6,29.96,SW,232,2.0,12.0,90,0.00,,,2.10,234.0,meteohub,2013-08-08 16:13:00,
2013-08-08 12:19:00,76.8,73.9,29.96,SE,137,1.0,12.0,91,0.00,,,2.10,239.0,meteohub,2013-08-08 16:19:00,
2013-08-08 12:24:00,76.8,73.9,29.96,SW,233,7.0,10.0,91,0.00,,,2.10,287.0,meteohub,2013-08-08 16:24:00,
2013-08-08 12:29:00,77.0,74.5,29.96,WSW,242,6.0,10.0,92,0.00,,,2.10,304.0,meteohub,2013-08-08 16:29:00,
2013-08-08 12:34:00,77.4,74.5,29.96,WNW,288,3.0,10.0,91,0.00,,,2.10,362.0,meteohub,2013-08-08 16:34:00,
2013-08-08 12:39:00,77.7,74.5,29.96,South,177,4.0,9.0,90,0.00,,,2.10,334.0,meteohub,2013-08-08 16:39:00,
2013-08-08 12:44:00,78.1,74.8,29.96,South,190,1.0,9.0,90,0.00,,,2.10,209.0,meteohub,2013-08-08 16:44:00,
2013-08-08 12:49:00,77.9,74.7,29.96,WSW,245,8.0,10.0,90,0.00,,,2.10,306.0,meteohub,2013-08-08 16:49:00,
2013-08-08 12:54:00,77.5,74.7,29.95,SW,227,6.0,14.0,91,0.00,,,2.10,513.0,meteohub,2013-08-08 16:54:00,
2013-08-08 12:59:00,77.7,74.8,29.95,South,182,4.0,14.0,91,0.00,,,2.10,555.0,meteohub,2013-08-08 16:59:00,
2013-08-08 13:05:00,78.1,74.5,29.95,SSW,193,6.0,14.0,89,0.00,,,2.10,468.0,meteohub,2013-08-08 17:05:00,
2013-08-08 13:10:00,78.3,75.0,29.94,West,272,7.0,11.0,90,0.00,,,2.10,422.0,meteohub,2013-08-08 17:10:00,
2013-08-08 13:15:00,78.6,75.0,29.94,South,172,3.0,10.0,89,0.00,,,2.10,417.0,meteohub,2013-08-08 17:15:00,
2013-08-08 13:20:00,78.6,75.0,29.94,SW,234,5.0,7.0,89,0.00,,,2.10,522.0,meteohub,2013-08-08 17:20:00,
2013-08-08 13:25:00,79.2,75.4,29.94,West,269,7.0,7.0,88,0.00,,,2.10,504.0,meteohub,2013-08-08 17:25:00,
2013-08-08 13:30:00,79.5,75.6,29.94,South,185,1.0,7.0,88,0.00,,,2.10,496.0,meteohub,2013-08-08 17:30:00,
2013-08-08 13:35:00,79.7,76.1,29.94,West,264,7.0,7.0,89,0.00,,,2.10,476.0,meteohub,2013-08-08 17:35:00,
2013-08-08 13:40:00,79.7,75.6,29.94,WSW,251,2.0,7.0,87,0.00,,,2.10,519.0,meteohub,2013-08-08 17:40:00,
2013-08-08 13:45:00,79.7,75.7,29.94,South,177,4.0,9.0,88,0.00,,,2.10,548.0,meteohub,2013-08-08 17:45:00,
2013-08-08 13:50:00,80.4,76.1,29.93,SSW,195,2.0,9.0,87,0.00,,,2.10,464.0,meteohub,2013-08-08 17:50:00,
2013-08-08 13:56:00,81.0,75.7,29.93,SW,232,3.0,9.0,84,0.00,,,2.10,912.0,meteohub,2013-08-08 17:56:00,
2013-08-08 14:01:00,81.3,75.4,29.93,SSE,154,4.0,8.0,82,0.00,,,2.10,895.0,meteohub,2013-08-08 18:01:00,
2013-08-08 14:06:00,81.7,77.0,29.92,West,259,3.0,10.0,86,0.00,,,2.10,905.0,meteohub,2013-08-08 18:06:00,
2013-08-08 14:07:00,81.9,76.8,29.92,SW,215,1.0,10.0,85,0.00,,,2.10,905.0,meteohub,2013-08-08 18:07:00,
2013-08-08 14:12:00,82.2,77.2,29.92,WNW,301,5.0,10.0,85,0.00,,,2.10,715.0,meteohub,2013-08-08 18:12:00,
2013-08-08 14:17:00,81.5,75.9,29.92,SE,144,3.0,10.0,83,0.00,,,2.10,380.0,meteohub,2013-08-08 18:17:00,
2013-08-08 14:22:00,81.7,75.6,29.92,SSW,194,3.0,8.0,82,0.00,,,2.10,475.0,meteohub,2013-08-08 18:22:00,
2013-08-08 14:27:00,81.3,74.5,29.92,South,190,5.0,8.0,80,0.00,,,2.10,396.0,meteohub,2013-08-08 18:27:00,
2013-08-08 14:32:00,81.0,75.0,29.91,SW,219,3.0,8.0,82,0.00,,,2.10,441.0,meteohub,2013-08-08 18:32:00,
2013-08-08 14:37:00,81.1,74.7,29.91,SW,236,5.0,10.0,81,0.00,,,2.10,443.0,meteohub,2013-08-08 18:37:00,
2013-08-08 14:42:00,81.0,75.0,29.91,SE,145,5.0,10.0,82,0.00,,,2.10,496.0,meteohub,2013-08-08 18:42:00,
2013-08-08 14:47:00,81.1,74.7,29.91,SW,224,11.0,11.0,81,0.00,,,2.10,443.0,meteohub,2013-08-08 18:47:00,
2013-08-08 14:52:00,80.8,74.8,29.91,SW,229,3.0,12.0,82,0.00,,,2.10,290.0,meteohub,2013-08-08 18:52:00,
2013-08-08 14:57:00,80.6,75.0,29.91,SSW,210,1.0,12.0,83,0.00,,,2.10,436.0,meteohub,2013-08-08 18:57:00,
2013-08-08 15:02:00,80.8,75.2,29.91,WSW,242,4.0,12.0,83,0.00,,,2.10,503.0,meteohub,2013-08-08 19:02:00,
2013-08-08 15:08:00,82.0,75.9,29.91,WSW,249,2.0,11.0,82,0.00,,,2.10,640.0,meteohub,2013-08-08 19:08:00,
2013-08-08 15:13:00,82.4,75.6,29.91,SW,225,8.0,11.0,80,0.00,,,2.10,698.0,meteohub,2013-08-08 19:13:00,
2013-08-08 15:18:00,82.2,74.7,29.91,West,259,8.0,10.0,78,0.00,,,2.10,485.0,meteohub,2013-08-08 19:18:00,
2013-08-08 15:23:00,81.3,74.5,29.91,South,187,5.0,14.0,80,0.00,,,2.10,427.0,meteohub,2013-08-08 19:23:00,
2013-08-08 15:28:00,81.1,74.7,29.91,SW,229,9.0,14.0,81,0.00,,,2.10,462.0,meteohub,2013-08-08 19:28:00,
2013-08-08 15:33:00,81.1,74.7,29.91,South,190,4.0,14.0,81,0.00,,,2.10,443.0,meteohub,2013-08-08 19:33:00,
2013-08-08 15:38:00,81.7,75.2,29.91,SSE,152,7.0,11.0,81,0.00,,,2.10,359.0,meteohub,2013-08-08 19:38:00,
2013-08-08 15:43:00,81.9,76.1,29.90,SSE,157,1.0,10.0,83,0.00,,,2.10,299.0,meteohub,2013-08-08 19:43:00,
2013-08-08 15:48:00,83.3,76.1,29.90,SSW,196,8.0,10.0,79,0.00,,,2.10,838.0,meteohub,2013-08-08 19:48:00,
2013-08-08 15:54:00,83.5,75.9,29.90,SSW,205,2.0,12.0,78,0.00,,,2.10,810.0,meteohub,2013-08-08 19:54:00,
2013-08-08 15:59:00,84.0,75.6,29.90,WSW,245,11.0,12.0,76,0.00,,,2.10,768.0,meteohub,2013-08-08 19:59:00,
2013-08-08 16:04:00,84.0,76.5,29.90,West,268,3.0,12.0,78,0.00,,,2.10,761.0,meteohub,2013-08-08 20:04:00,
2013-08-08 16:09:00,84.2,75.4,29.90,WSW,250,7.0,11.0,75,0.00,,,2.10,719.0,meteohub,2013-08-08 20:09:00,
2013-08-08 16:14:00,84.0,75.6,29.89,West,263,3.0,13.0,76,0.00,,,2.10,700.0,meteohub,2013-08-08 20:14:00,
2013-08-08 16:19:00,84.2,77.0,29.89,WSW,253,3.0,13.0,79,0.00,,,2.10,712.0,meteohub,2013-08-08 20:19:00,
2013-08-08 16:25:00,84.7,75.9,29.89,WSW,238,5.0,13.0,75,0.00,,,2.10,721.0,meteohub,2013-08-08 20:25:00,
2013-08-08 16:30:00,84.7,76.3,29.89,SW,225,7.0,8.0,76,0.00,,,2.10,575.0,meteohub,2013-08-08 20:30:00,
2013-08-08 16:35:00,84.4,76.5,29.89,SSW,210,6.0,11.0,77,0.00,,,2.10,689.0,meteohub,2013-08-08 20:35:00,
2013-08-08 16:40:00,84.0,75.2,29.89,SW,234,8.0,12.0,75,0.00,,,2.10,225.0,meteohub,2013-08-08 20:40:00,
2013-08-08 16:45:00,84.4,76.5,29.89,SW,225,5.0,12.0,77,0.00,,,2.10,729.0,meteohub,2013-08-08 20:45:00,
2013-08-08 16:50:00,85.3,76.5,29.89,East,94,0.0,12.0,75,0.00,,,2.10,664.0,meteohub,2013-08-08 20:50:00,
2013-08-08 16:55:00,85.6,76.5,29.88,SSW,210,2.0,12.0,74,0.00,,,2.10,480.0,meteohub,2013-08-08 20:55:00,
2013-08-08 17:00:00,84.6,75.4,29.88,South,183,5.0,9.0,74,0.00,,,2.10,325.0,meteohub,2013-08-08 21:00:00,
2013-08-08 17:06:00,83.5,74.7,29.89,South,169,5.0,10.0,75,0.00,,,2.10,350.0,meteohub,2013-08-08 21:06:00,
2013-08-08 17:11:00,83.3,75.4,29.89,SW,221,3.0,10.0,77,0.00,,,2.10,350.0,meteohub,2013-08-08 21:11:00,
2013-08-08 17:17:00,84.4,75.2,29.89,WSW,258,7.0,10.0,74,0.00,,,2.10,334.0,meteohub,2013-08-08 21:17:00,
2013-08-08 17:22:00,83.3,75.4,29.89,WNW,296,2.0,13.0,77,0.00,,,2.10,292.0,meteohub,2013-08-08 21:22:00,
2013-08-08 17:27:00,83.5,75.9,29.89,SE,138,3.0,13.0,78,0.00,,,2.10,364.0,meteohub,2013-08-08 21:27:00,
2013-08-08 17:32:00,83.3,75.0,29.89,West,278,2.0,13.0,76,0.00,,,2.10,239.0,meteohub,2013-08-08 21:32:00,
2013-08-08 17:40:00,82.8,75.2,29.89,SW,236,6.0,10.0,78,0.00,,,2.10,311.0,meteohub,2013-08-08 21:40:00,
2013-08-08 17:45:00,82.8,74.8,29.89,WSW,242,1.0,10.0,77,0.00,,,2.10,339.0,meteohub,2013-08-08 21:45:00,
2013-08-08 17:52:00,82.9,75.4,29.88,WSW,250,2.0,9.0,78,0.00,,,2.10,225.0,meteohub,2013-08-08 21:52:00,
2013-08-08 17:57:00,82.9,75.0,29.88,SW,235,6.0,9.0,77,0.00,,,2.10,195.0,meteohub,2013-08-08 21:57:00,
2013-08-08 18:02:00,82.6,74.7,29.88,WSW,242,4.0,8.0,77,0.00,,,2.10,188.0,meteohub,2013-08-08 22:02:00,
2013-08-08 18:07:00,82.2,75.0,29.88,SW,232,5.0,8.0,79,0.00,,,2.10,213.0,meteohub,2013-08-08 22:07:00,
2013-08-08 18:12:00,82.4,75.2,29.89,SW,223,5.0,8.0,79,0.00,,,2.10,255.0,meteohub,2013-08-08 22:12:00,
2013-08-08 18:17:00,82.6,75.0,29.89,SW,225,4.0,8.0,78,0.00,,,2.10,232.0,meteohub,2013-08-08 22:17:00,
2013-08-08 18:22:00,82.6,74.7,29.89,WSW,253,4.0,8.0,77,0.00,,,2.10,183.0,meteohub,2013-08-08 22:22:00,
2013-08-08 18:27:00,82.4,75.2,29.89,West,259,3.0,8.0,79,0.00,,,2.10,178.0,meteohub,2013-08-08 22:27:00,
2013-08-08 18:32:00,82.4,75.2,29.89,West,261,4.0,8.0,79,0.00,,,2.10,167.0,meteohub,2013-08-08 22:32:00,
2013-08-08 18:37:00,82.4,75.2,29.89,SW,223,2.0,8.0,79,0.00,,,2.10,171.0,meteohub,2013-08-08 22:37:00,
2013-08-08 18:42:00,82.2,74.7,29.88,WSW,253,2.0,8.0,78,0.00,,,2.10,155.0,meteohub,2013-08-08 22:42:00,
2013-08-08 18:48:00,82.0,74.8,29.88,SW,234,3.0,10.0,79,0.00,,,2.10,130.0,meteohub,2013-08-08 22:48:00,
2013-08-08 18:53:00,81.9,75.0,29.88,WSW,250,0.0,10.0,80,0.00,,,2.10,125.0,meteohub,2013-08-08 22:53:00,
2013-08-08 18:58:00,81.9,75.0,29.87,WSW,248,3.0,10.0,80,0.00,,,2.10,118.0,meteohub,2013-08-08 22:58:00,
2013-08-08 19:04:00,81.7,74.5,29.87,South,182,3.0,7.0,79,0.00,,,2.10,107.0,meteohub,2013-08-08 23:04:00,
2013-08-08 19:12:00,81.5,74.3,29.87,SSW,205,2.0,6.0,79,0.00,,,2.10,90.0,meteohub,2013-08-08 23:12:00,
2013-08-08 19:17:00,81.3,74.8,29.87,SW,225,2.0,6.0,81,0.00,,,2.10,84.0,meteohub,2013-08-08 23:17:00,
2013-08-08 19:22:00,81.3,74.8,29.87,SSW,200,1.0,5.0,81,0.00,,,2.10,83.0,meteohub,2013-08-08 23:22:00,
2013-08-08 19:27:00,81.1,74.7,29.87,SSW,205,2.0,5.0,81,0.00,,,2.10,83.0,meteohub,2013-08-08 23:27:00,
2013-08-08 19:35:00,81.1,74.7,29.87,SW,219,2.0,6.0,81,0.00,,,2.10,76.0,meteohub,2013-08-08 23:35:00,
2013-08-08 19:40:00,81.0,75.0,29.87,SSE,151,3.0,8.0,82,0.00,,,2.10,63.0,meteohub,2013-08-08 23:40:00,
2013-08-08 19:47:00,80.8,74.8,29.87,SSE,154,2.0,8.0,82,0.00,,,2.10,54.0,meteohub,2013-08-08 23:47:00,
2013-08-08 19:52:00,80.8,75.2,29.87,SSW,205,2.0,6.0,83,0.00,,,2.10,47.0,meteohub,2013-08-08 23:52:00,
2013-08-08 19:57:00,80.6,75.0,29.87,South,183,2.0,6.0,83,0.00,,,2.10,46.0,meteohub,2013-08-08 23:57:00,
2013-08-08 20:02:00,80.4,74.8,29.87,SSW,205,1.0,6.0,83,0.00,,,2.10,33.0,meteohub,2013-08-09 00:02:00,
2013-08-08 20:10:00,80.2,74.7,29.87,South,171,2.0,4.0,83,0.00,,,0.00,28.0,meteohub,2013-08-09 00:10:00,
2013-08-08 20:17:00,80.1,74.8,29.87,SSW,205,0.0,5.0,84,0.00,,,0.00,18.0,meteohub,2013-08-09 00:17:00,
2013-08-08 20:22:00,79.9,75.0,29.88,SW,215,1.0,5.0,85,0.00,,,0.00,11.0,meteohub,2013-08-09 00:22:00,
2013-08-08 20:27:00,79.5,74.3,29.88,SW,215,0.0,2.0,84,0.00,,,0.00,5.0,meteohub,2013-08-09 00:27:00,
2013-08-08 20:32:00,79.5,74.7,29.88,SW,215,0.0,2.0,85,0.00,,,0.00,0.0,meteohub,2013-08-09 00:32:00,
2013-08-08 20:39:00,79.2,74.7,29.89,SW,215,0.0,2.0,86,0.00,,,0.00,0.0,meteohub,2013-08-09 00:39:00,
2013-08-08 20:44:00,78.8,74.7,29.89,SW,215,1.0,2.0,87,0.00,,,0.00,0.0,meteohub,2013-08-09 00:44:00,
2013-08-08 20:49:00,78.4,74.7,29.89,SW,215,0.0,2.0,88,0.00,,,0.00,0.0,meteohub,2013-08-09 00:49:00,
2013-08-08 20:57:00,78.3,74.7,29.89,SW,215,0.0,2.0,89,0.00,,,0.00,0.0,meteohub,2013-08-09 00:57:00,
2013-08-08 21:02:00,77.7,74.3,29.90,SSW,200,0.0,3.0,89,0.00,,,0.00,0.0,meteohub,2013-08-09 01:02:00,
2013-08-08 21:08:00,77.7,74.3,29.90,SW,227,3.0,3.0,89,0.00,,,0.00,0.0,meteohub,2013-08-09 01:08:00,
2013-08-08 21:13:00,77.9,74.5,29.90,SSW,195,1.0,5.0,89,0.00,,,0.00,0.0,meteohub,2013-08-09 01:13:00,
2013-08-08 21:22:00,78.1,74.5,29.90,South,184,1.0,5.0,89,0.00,,,0.00,0.0,meteohub,2013-08-09 01:22:00,
2013-08-08 21:30:00,78.1,74.5,29.90,South,182,1.0,5.0,89,0.00,,,0.00,0.0,meteohub,2013-08-09 01:30:00,
2013-08-08 21:35:00,78.1,74.5,29.91,South,181,4.0,5.0,89,0.00,,,0.00,0.0,meteohub,2013-08-09 01:35:00,
2013-08-08 21:40:00,78.1,74.5,29.91,SSE,167,1.0,5.0,89,0.00,,,0.00,0.0,meteohub,2013-08-09 01:40:00,
2013-08-08 21:46:00,78.1,74.5,29.91,SW,215,3.0,5.0,89,0.00,,,0.00,0.0,meteohub,2013-08-09 01:46:00,
2013-08-08 21:52:00,78.1,74.5,29.91,South,176,4.0,5.0,89,0.00,,,0.00,0.0,meteohub,2013-08-09 01:52:00,
2013-08-08 21:58:00,78.1,74.5,29.91,South,190,0.0,5.0,89,0.00,,,0.00,0.0,meteohub,2013-08-09 01:58:00,
2013-08-08 22:05:00,77.9,74.7,29.91,South,188,1.0,7.0,90,0.00,,,0.00,0.0,meteohub,2013-08-09 02:05:00,
2013-08-08 22:11:00,77.7,74.5,29.92,South,175,2.0,7.0,90,0.00,,,0.00,0.0,meteohub,2013-08-09 02:11:00,
2013-08-08 22:17:00,77.7,74.5,29.93,South,170,0.0,6.0,90,0.00,,,0.00,0.0,meteohub,2013-08-09 02:17:00,
2013-08-08 22:22:00,77.7,74.5,29.93,South,171,0.0,6.0,90,0.00,,,0.00,0.0,meteohub,2013-08-09 02:22:00,
2013-08-08 22:31:00,77.7,74.3,29.93,SSW,197,2.0,5.0,89,0.00,,,0.00,0.0,meteohub,2013-08-09 02:31:00,
2013-08-08 22:37:00,77.7,74.3,29.92,SW,232,1.0,5.0,89,0.00,,,0.00,0.0,meteohub,2013-08-09 02:37:00,
2013-08-08 22:42:00,77.7,74.3,29.92,SW,225,1.0,6.0,89,0.00,,,0.00,0.0,meteohub,2013-08-09 02:42:00,
2013-08-08 22:47:00,77.7,74.3,29.92,South,179,2.0,6.0,89,0.00,,,0.00,0.0,meteohub,2013-08-09 02:47:00,
2013-08-08 22:52:00,77.5,74.1,29.93,SSW,205,2.0,6.0,89,0.00,,,0.00,0.0,meteohub,2013-08-09 02:52:00,
2013-08-08 22:57:00,77.5,74.1,29.92,SSW,192,1.0,6.0,89,0.00,,,0.00,0.0,meteohub,2013-08-09 02:57:00,
2013-08-08 23:02:00,77.5,74.1,29.92,SSW,205,4.0,6.0,89,0.00,,,0.00,0.0,meteohub,2013-08-09 03:02:00,
2013-08-08 23:08:00,77.4,73.9,29.92,SSE,165,1.0,7.0,89,0.00,,,0.00,0.0,meteohub,2013-08-09 03:08:00,
2013-08-08 23:13:00,77.4,73.9,29.92,SW,215,1.0,7.0,89,0.00,,,0.00,0.0,meteohub,2013-08-09 03:13:00,
2013-08-08 23:18:00,77.4,73.9,29.92,SW,215,0.0,7.0,89,0.00,,,0.00,0.0,meteohub,2013-08-09 03:18:00,
2013-08-08 23:23:00,77.2,73.9,29.92,SW,215,0.0,5.0,90,0.00,,,0.00,0.0,meteohub,2013-08-09 03:23:00,
2013-08-08 23:30:00,77.2,73.9,29.92,South,187,4.0,5.0,90,0.00,,,0.00,0.0,meteohub,2013-08-09 03:30:00,
2013-08-08 23:36:00,77.2,73.9,29.92,West,276,2.0,7.0,90,0.00,,,0.00,0.0,meteohub,2013-08-09 03:36:00,
2013-08-08 23:41:00,77.2,73.9,29.92,SSW,205,2.0,7.0,90,0.00,,,0.00,0.0,meteohub,2013-08-09 03:41:00,
2013-08-08 23:46:00,77.2,73.9,29.92,South,169,5.0,7.0,90,0.00,,,0.00,0.0,meteohub,2013-08-09 03:46:00,
2013-08-08 23:52:00,77.0,73.8,29.92,SW,226,3.0,7.0,90,0.00,,,0.00,0.0,meteohub,2013-08-09 03:52:00,
2013-08-08 23:57:00,77.0,74.1,29.92,SSW,205,1.0,7.0,91,0.00,,,0.00,0.0,meteohub,2013-08-09 03:57:00,